Impacts METAR Board
IDs:

KDTW - Detroit Metro/Wayne, MI, US

Updated at: 1900 UTC 23 Jun 2018
Potential Impact None Slight Moderate High
Time 23/07Z 23/08Z 23/09Z 23/10Z 23/11Z 23/12Z 23/13Z 23/14Z 23/15Z 23/16Z 23/17Z 23/18Z 23/19Z
Temp67 68 68 68 68 69 70 72 74 74 72 73 72
Dewpt62 63 63 64 64 65 65 66 66 65 65 66 67
Altim29.70 29.69 29.68 29.67 29.69 29.69 29.69 29.69 29.68 29.69 29.70 29.70 29.70
VIS9 8 8 5 5 4 4 4 5 4 7 3 3
CIG11 8 9 7 7 6 6 20 35 25 20 60 45
CoverOVCOVCOVCOVCOVCOVCOVCOVCOVCOVCBKNOVCOVC
FltCatMVFRIFRIFRIFRIFRIFRIFRMVFRMVFRMVFRMVFRMVFRMVFR
WX-----RA-RA BRBRBRHZHZ-RA-RA---RARA
WDir807070110805040503603608040190
WSpd4 4 4 5 4 5 6 3 7 7 5 5 4
WGst-- -- -- -- -- -- -- -- -- -- -- -- --
Raw hourly METARs
KDTW 230653Z 08004KT 9SM OVC011 19/17 A2970 RMK AO2 SLP052 T01940167 $
KDTW 230753Z 07004KT 8SM OVC008 20/17 A2969 RMK AO2 SLP051 T02000172 $
KDTW 230853Z 07004KT 8SM -RA OVC009 20/17 A2968 RMK AO2 RAB30 SLP046 P0000 60000 T02000172 58011 $
KDTW 230953Z 11005KT 5SM -RA BR OVC007 20/18 A2967 RMK AO2 SLP045 P0002 T02000178 $
KDTW 231053Z 08004KT 5SM BR OVC007 20/18 A2969 RMK AO2 RAE03 SLP050 P0000 T02000178 $
KDTW 231153Z 05005KT 4SM BR OVC006 21/18 A2969 RMK AO2 SLP052 60002 70003 T02060183 10206 20194 53006 $
KDTW 231253Z 04006KT 4SM HZ BKN006 OVC011 21/18 A2969 RMK AO2 SLP050 T02110183 $
KDTW 231353Z 05003KT 4SM HZ SCT009 BKN020 OVC035 22/19 A2969 RMK AO2 SLP051 T02220189
KDTW 231453Z 36007KT 5SM -RA SCT015 BKN035 OVC055 23/19 A2968 RMK AO2 RAB47 SLP048 P0000 60000 T02330189 58004
KDTW 231553Z 36007KT 4SM -RA SCT015 BKN025 OVC050 23/18 A2969 RMK AO2 RAE16B49 SLP051 P0000 T02330183 $
KDTW 231653Z 08005KT 7SM SCT012 BKN020 BKN070 22/18 A2970 RMK AO2 LTG DSNT E RAE50 TSE34 SLP053 P0001 T02220183 $
KDTW 231753Z 04005KT 3SM -RA FEW010 BKN060 OVC080 23/19 A2970 RMK AO2 TWR VIS 4 RAB1657E16B38 SLP054 P0001 60002 T02280189 10233 20206 51006 $
KDTW 231853Z 19004KT 3SM R03R/5000VP6000FT RA SCT035 BKN045 OVC060 22/19 A2970 RMK AO2 TWR VIS 4 SLP054 P0019 T02220194 $



Page loaded:  19:32 UTC  |   12:32 PM Pacific  |   01:32 PM Mountain  |   02:32 PM Central  |   03:32 PM Eastern

 

ADVISORIES

FORECASTS

FORECASTS

OBSERVATIONS

USER TOOLS

ABOUT US